Pagrindinis puslapis
METAR-TAF:

METAR-TAF

Oro uostai :

Sørkjosen, Norvegija

platuma: 69-47N, ilguma: 020-58E, Aukštis: 0 m

Dabartinis oras

Ataskaita buvo paskelbta 1 valandą ir 55 minutes, ne 08:50 UTC
Vėjas 6 kt iš Rytų/Pietryčių
Temperatūra 2°C
Drėgmė 60%
Slėgis 995 hPa
Matomumas 10 km arba daugiau
Išsisklaidę debesys ne aukštis 3800 ft
Išsisklaidę debesys ne aukštis 4900 ft

METAR: ENSR 220850Z 12006KT 9999 SCT038 SCT049 02/M05 Q0995 RMK WIND 1119FT 07015KT

Laikas: 12:45 (10:45 UTC)


TAF: trūkstamas

Orai ataskaitas ir orų prognozės (METAR, TAF).

turimą stotys yra geltonos ir raudonos taškus žemėlapyje.

Perkelti pele per norėdami pamatyti stoties vardą.

Tada spustelėkite, norėdami matyti oro stebėjimo ir prognozės.

Norėdami pakeisti žemėlapį: spustelėkite ant žalios mygtukų su juodo kryžiaus žemyn,; žalią mygtuką su brūkšneliu, jei norite nutolinti; arba žalių rodyklių gretimoms žemėlapius.


METAR-TAF: